AirNav   Pilot Hours Calculator
 
 1224 users online  

NA79 Philbrick Private Airstrip
Turtle Lake, North Dakota, USA

GOING TO TURTLE LAKE?


FAA INFORMATION EFFECTIVE 01 DECEMBER 2022

Location

FAA Identifier: NA79
Lat/Long: 47-24-14.9850N 100-52-56.5050W
47-24.249750N 100-52.941750W
47.4041625,-100.8823625
(estimated)
Elevation: 1915 ft. / 584 m (estimated)
Variation: 10E (1985)
From city: 7 miles S of TURTLE LAKE, ND
Time zone: UTC -6 (UTC -5 during Daylight Saving Time)
Zip code: 58575

Airport Operations

Airport use: Private use. Permission required prior to landing
Activation date: 07/1982
Control tower: no
ARTCC: MINNEAPOLIS CENTER
FSS: GRAND FORKS FLIGHT SERVICE STATION
Attendance: UNATNDD
Wind indicator: yes
Segmented circle: no

Nearby radio navigation aids

VOR radial/distance  VOR name  Freq  Var
BISr335/39.6BISMARCK VOR/DME115.6512E

Airport Services

Runway Information

Runway 17/35

Dimensions: 1760 x 48 ft. / 536 x 15 m
Surface: turf
RUNWAY 17  RUNWAY 35
Traffic pattern: leftleft
Obstructions: none25 ft. pline, 500 ft. from runway

Airport Ownership and Management from official FAA records

Ownership: Privately-owned
Owner: RICHARD PHILBRICK
1567 1ST STREET SW
TURTLE LAKE, ND 58575-9416
Phone 701-448-9236
Manager: RICHARD PHILBRICK
1567 1ST STREET SW
TURTLE LAKE, ND 58575
Phone 701-448-9236

Airport Operational Statistics

Aircraft based on the field: 1
Single engine airplanes: 1
    

Additional Remarks

FOR CD CTC MINNEAPOLIS ARTCC AT 651-463-5588.

Instrument Procedures

There are no published instrument procedures at NA79.

Some nearby airports with instrument procedures:

D05 - Garrison Municipal Airport (27 nm NW)
KHZE - Mercer County Regional Airport (29 nm W)
Y19 - Mandan Regional Airport/Lawler Field (38 nm S)
KBIS - Bismarck Municipal Airport (38 nm S)
5H4 - Harvey Municipal Airport (45 nm NE)
 
Loc | Ops | Rwys | IFR | FBO | Links
Com | Nav | Svcs | Stats | Notes

Bismarck Aero Center
AirBoss

 
Area around NA79 (Philbrick Private Airstrip)
 
Road maps at: MapQuest Bing Google
 
Aerial photo
No photo
 
Sectional chart

 
Airport distance calculator
Flying to Philbrick Private Airstrip? Find the distance to fly.

From to NA79

Sunrise and sunset
Times for 03-Dec-2022
 Local
(UTC-6)
 Zulu
(UTC)
Morning civil twilight07:3813:38
Sunrise08:1414:14
Sunset16:5322:53
Evening civil twilight17:2823:28

Current date and time
Zulu (UTC)  04-Dec-2022 02:34:19
Local (UTC-6)  03-Dec-2022 20:34:19
 
METAR
KN60 
27nm NW 
040152Z AUTO 00000KT M14/M17 A3006 RMK AO1 SLP231 T11391167
KHZE 
29nm W 
040215Z AUTO 22004KT 10SM CLR M18/M19 A3010 RMK AO2
KY19 
38nm S 
040215Z AUTO 23007KT 10SM CLR M14/M17 A3010 RMK AO2
KBIS 
39nm S 
040152Z AUTO 00000KT 10SM CLR M15/M19 A3013 RMK AO2 SLP250 T11501189
K5H4 
45nm NE 
040215Z AUTO 22005KT 10SM CLR M17/M17 A3009 RMK AO2
TAF
KBIS 
39nm S 
032046Z 0321/0418 26006KT P6SM SKC FM040000 24005KT P6SM SKC FM041400 23010KT P6SM SKC WS020/28040KT
NOTAMs
Click for the latest NOTAMs
NOTAMs are issued by the DoD/FAA and will open in a separate window not controlled by AirNav.

 

 
 

Would you like to see your business listed on this page?

 If your business provides an interesting product or service to pilots, flight crews, aircraft, or users of the Philbrick Private Airstrip, you should consider listing it here.  To start the listing process, click on the button below
 
Add a business
 

Other Pages about Philbrick Private Airstrip

Update a link
 
Copyright © AirNav, LLC. All rights reserved. Privacy Policy  Contact